This is the latest recevied weather packets stored in our database for station/object WP3OF-2. If no packets are shown the sender has not sent any weather packets the latest 10 day(s).
| Time | Temp. | Humidity | Pressure | Rain* | Wind** | Luminosity | Snow |
|---|---|---|---|---|---|---|---|
| 1777743848 | 24.44° C | 87% | 1025.6 hPa | 0 mm | - | 704 W/m² | - |
| 1777743544 | 24.44° C | 87% | 1025.6 hPa | 0 mm | - | 906 W/m² | - |
| 1777743241 | 24.44° C | 87% | 1025.6 hPa | 0 mm | - | 310 W/m² | - |
| 1777742940 | 23.89° C | 87% | 1026 hPa | 0 mm | - | 1041 W/m² | - |
| 1777742636 | 23.89° C | 87% | 1026 hPa | 0 mm | - | 503 W/m² | - |
| 1777742332 | 23.89° C | 88% | 1026 hPa | 0 mm | - | 927 W/m² | - |
| 1777742028 | 23.89° C | 87% | 1026 hPa | 0 mm | - | 836 W/m² | - |
| 1777741726 | 23.33° C | 88% | 1026 hPa | 0 mm | - | 882 W/m² | - |
| 1777741422 | 24.44° C | 86% | 1026 hPa | 0 mm | - | 304 W/m² | - |
| 1777741118 | 23.89° C | 85% | 1026.3 hPa | 0 mm | - | 269 W/m² | - |
| 1777740815 | 23.89° C | 85% | 1026 hPa | 0 mm | - | 337 W/m² | - |
| 1777740512 | 23.89° C | 89% | 1026.3 hPa | 0 mm | - | 984 W/m² | - |
| 1777740210 | 23.89° C | 86% | 1026.3 hPa | 0 mm | - | 278 W/m² | - |
| 1777739905 | 23.89° C | 85% | 1026 hPa | 0 mm | - | 862 W/m² | - |
| 1777739602 | 23.33° C | 88% | 1026.3 hPa | 0 mm | - | 876 W/m² | - |
| 1777739300 | 22.78° C | 89% | 1026.3 hPa | 0 mm | - | 962 W/m² | - |
| 1777738996 | 23.33° C | 87% | 1026.3 hPa | 0 mm | - | 303 W/m² | - |
| 1777738693 | 23.33° C | 87% | 1026.7 hPa | 0 mm | - | 677 W/m² | - |
| 1777738389 | 23.89° C | 89% | 1026.7 hPa | 0 mm | - | 1123 W/m² | - |
| 1777738087 | 23.89° C | 87% | 1026.7 hPa | 0 mm | - | 445 W/m² | - |
| 1777737786 | 23.33° C | 85% | 1026.7 hPa | 0 mm | - | 523 W/m² | - |
| 1777737484 | 23.89° C | 86% | 1026.7 hPa | 0 mm | - | 500 W/m² | - |
| 1777737177 | 23.33° C | 89% | 1026.7 hPa | 0 mm | - | 916 W/m² | - |
| 1777736871 | 22.78° C | 89% | 1026.7 hPa | 0 mm | - | 951 W/m² | - |
| 1777736258 | 23.33° C | 90% | 1027.1 hPa | 0 mm | - | 871 W/m² | - |
* Rain latest hour (hover to see other rain measurements)
** Current wind speed in m/s (hover to see current wind gust speed)